Time;durP1;ratioP1;P1;durP2;ratioP2;P2;SDS_P1;SDS_P2;PMS_P1;PMS_P2;Temp;Humidity;BMP_temperature;BMP_pressure;BME280_temperature;BME280_humidity;BME280_pressure;Samples;Min_cycle;Max_cycle;Signal;HPM_P1;HPM_P2
2023/01/02 00:01:23;;;;;;;67.40;64.23;;;12.40;99.90;;;;;;4964508;28;20458;-83
2023/01/02 00:03:50;;;;;;;80.57;77.20;;;12.40;99.90;;;;;;4976779;28;20458;-83
2023/01/02 00:06:17;;;;;;;50.27;47.37;;;12.30;99.90;;;;;;4970483;28;20998;-83
2023/01/02 00:08:43;;;;;;;56.57;53.37;;;12.50;99.90;;;;;;4957633;28;20464;-83
2023/01/02 00:11:10;;;;;;;91.07;85.97;;;12.60;99.90;;;;;;4973483;28;20477;-83
2023/01/02 00:13:37;;;;;;;66.40;63.40;;;12.70;99.90;;;;;;4977966;28;20455;-84
2023/01/02 00:16:04;;;;;;;49.97;46.77;;;12.70;99.90;;;;;;4963945;28;20849;-83
2023/01/02 00:18:32;;;;;;;43.00;39.80;;;12.90;99.90;;;;;;4958650;29;20459;-83
2023/01/02 00:21:02;;;;;;;32.57;30.77;;;12.90;99.90;;;;;;4970920;28;20827;-82
2023/01/02 00:23:30;;;;;;;30.40;27.93;;;13.00;99.90;;;;;;4978511;28;20459;-82
2023/01/02 00:25:56;;;;;;;42.70;39.60;;;12.90;99.90;;;;;;4964702;28;21070;-83
2023/01/02 00:28:23;;;;;;;49.87;46.87;;;12.90;99.90;;;;;;4958536;29;20460;-82
2023/01/02 00:30:50;;;;;;;38.93;36.93;;;12.90;99.90;;;;;;4967670;28;20486;-83
2023/01/02 00:33:16;;;;;;;33.40;31.57;;;13.00;99.90;;;;;;4976598;28;20462;-83
2023/01/02 00:35:44;;;;;;;39.27;37.37;;;12.90;99.90;;;;;;4974484;28;20478;-82
2023/01/02 00:38:11;;;;;;;36.47;34.43;;;12.90;99.90;;;;;;4976583;28;20459;-85
2023/01/02 00:40:38;;;;;;;44.40;39.20;;;12.80;99.90;;;;;;4967895;28;20452;-84
2023/01/02 00:43:05;;;;;;;38.73;36.53;;;12.80;99.90;;;;;;4957225;29;20816;-83
2023/01/02 00:45:32;;;;;;;35.73;33.20;;;12.70;99.90;;;;;;4962984;28;20471;-85
2023/01/02 00:47:59;;;;;;;21.10;19.57;;;12.80;99.90;;;;;;4977196;28;20467;-83
2023/01/02 00:50:25;;;;;;;25.43;23.40;;;12.90;99.90;;;;;;4971332;28;20475;-83
2023/01/02 00:52:53;;;;;;;38.53;36.43;;;12.90;99.90;;;;;;4957108;29;20467;-83
2023/01/02 00:55:20;;;;;;;39.37;37.10;;;12.80;99.90;;;;;;4959977;28;20833;-83
2023/01/02 00:57:47;;;;;;;25.40;23.33;;;12.70;99.90;;;;;;4976539;28;20539;-83
2023/01/02 01:00:15;;;;;;;22.87;20.60;;;12.70;99.90;;;;;;4973993;28;20855;-83
2023/01/02 01:02:42;;;;;;;24.63;22.50;;;12.80;99.90;;;;;;4957320;28;20836;-83
2023/01/02 01:05:09;;;;;;;19.37;17.53;;;12.70;99.90;;;;;;4973969;28;20486;-83
2023/01/02 01:07:35;;;;;;;18.30;16.73;;;12.80;99.90;;;;;;4976162;28;20459;-83
2023/01/02 01:10:04;;;;;;;30.87;28.50;;;12.70;99.90;;;;;;4959460;28;20459;-83
2023/01/02 01:12:31;;;;;;;17.77;16.50;;;12.80;99.90;;;;;;4956828;28;20459;-83
2023/01/02 01:14:58;;;;;;;12.87;11.47;;;12.70;99.90;;;;;;4970679;28;20818;-83
2023/01/02 01:17:24;;;;;;;17.53;11.90;;;12.90;99.90;;;;;;4975905;28;20450;-84
2023/01/02 01:19:51;;;;;;;16.10;14.50;;;12.90;99.90;;;;;;4961912;28;20455;-83
2023/01/02 01:22:18;;;;;;;15.60;14.33;;;13.10;99.90;;;;;;4956409;29;20452;-85
2023/01/02 01:24:44;;;;;;;13.37;11.53;;;13.10;99.90;;;;;;4967836;28;20478;-83
2023/01/02 01:27:12;;;;;;;16.70;8.97;;;13.10;99.90;;;;;;4961660;28;20961;-83
2023/01/02 01:29:39;;;;;;;11.80;6.93;;;13.30;99.90;;;;;;4975660;28;20447;-84
2023/01/02 01:32:06;;;;;;;10.93;6.87;;;13.50;99.90;;;;;;4966225;28;20483;-83
2023/01/02 01:34:33;;;;;;;8.73;4.57;;;13.40;99.90;;;;;;4955777;28;20486;-83
2023/01/02 01:36:59;;;;;;;11.23;5.37;;;13.50;99.90;;;;;;4974446;28;20451;-83
2023/01/02 01:39:26;;;;;;;17.63;5.57;;;13.50;99.90;;;;;;4975825;28;20549;-83
2023/01/02 01:41:53;;;;;;;10.30;4.50;;;13.50;99.90;;;;;;4958266;28;20455;-83
2023/01/02 01:44:45;;;;;;;11.30;4.73;;;13.50;99.90;;;;;;4956525;29;20460;-83
2023/01/02 01:47:18;;;;;;;6.90;3.50;;;13.50;99.90;;;;;;4974236;28;20465;-83
2023/01/02 01:49:46;;;;;;;10.57;4.60;;;13.60;99.90;;;;;;4975632;28;20462;-83
2023/01/02 01:52:15;;;;;;;13.17;4.33;;;13.50;99.90;;;;;;4956907;28;20507;-83
2023/01/02 01:54:46;;;;;;;13.73;5.27;;;13.50;99.90;;;;;;4955988;29;20490;-83
2023/01/02 01:57:16;;;;;;;18.40;5.47;;;13.40;99.90;;;;;;4969499;28;20833;-82
2023/01/02 01:59:45;;;;;;;8.53;3.97;;;13.40;99.90;;;;;;4975103;28;20463;-83
2023/01/02 02:02:12;;;;;;;19.93;5.80;;;13.40;99.90;;;;;;4974921;28;20957;-85
2023/01/02 02:04:40;;;;;;;12.37;5.57;;;13.30;99.90;;;;;;4974328;28;20475;-83
2023/01/02 02:07:07;;;;;;;11.60;7.07;;;13.40;99.90;;;;;;4974978;28;20477;-83
2023/01/02 02:09:39;;;;;;;10.63;4.30;;;13.20;99.90;;;;;;4960520;28;20989;-84
2023/01/02 02:12:07;;;;;;;12.27;5.90;;;13.30;99.90;;;;;;4955511;28;20487;-84
2023/01/02 02:14:34;;;;;;;12.23;4.73;;;13.30;99.90;;;;;;4968934;28;20475;-83
2023/01/02 02:17:12;;;;;;;10.90;5.40;;;13.30;99.90;;;;;;4975080;28;20462;-83
2023/01/02 02:20:02;;;;;;;12.10;4.77;;;13.40;99.90;;;;;;4961553;28;20822;-83
2023/01/02 02:23:00;;;;;;;9.20;4.57;;;13.20;99.90;;;;;;4955282;28;20463;-83
2023/01/02 02:26:06;;;;;;;13.70;4.77;;;13.30;99.90;;;;;;4952027;28;20479;-84
2023/01/02 02:29:14;;;;;;;9.70;4.40;;;13.30;99.90;;;;;;4964561;28;20478;-84
2023/01/02 02:31:50;;;;;;;8.80;3.90;;;13.10;99.90;;;;;;4914943;29;20477;-84
2023/01/02 02:34:22;;;;;;;8.73;4.53;;;13.40;99.90;;;;;;4948992;28;20460;-83
2023/01/02 02:36:57;;;;;;;8.13;4.50;;;13.20;99.90;;;;;;4955110;28;20451;-83
2023/01/02 02:39:36;;;;;;;10.10;3.80;;;13.10;99.90;;;;;;4964016;28;20454;-83
2023/01/02 02:42:12;;;;;;;14.93;4.30;;;13.10;99.90;;;;;;4975858;28;20462;-83
2023/01/02 02:44:47;;;;;;;6.33;3.70;;;13.20;99.90;;;;;;4964039;28;20519;-85
2023/01/02 02:47:24;;;;;;;8.07;4.10;;;13.20;99.90;;;;;;4956318;28;20466;-83
2023/01/02 02:49:58;;;;;;;10.17;4.20;;;13.30;99.90;;;;;;4966157;28;20451;-83
2023/01/02 02:52:32;;;;;;;10.50;5.10;;;13.10;99.90;;;;;;4974659;28;20872;-83
2023/01/02 02:55:02;;;;;;;11.83;4.53;;;13.00;99.90;;;;;;4962615;28;20482;-83
2023/01/02 02:57:31;;;;;;;13.03;6.20;;;13.00;99.90;;;;;;4955322;29;20460;-82
2023/01/02 02:59:58;;;;;;;11.03;7.07;;;12.90;99.90;;;;;;4965498;28;20459;-85
2023/01/02 03:02:26;;;;;;;8.77;5.57;;;13.00;99.90;;;;;;4967789;28;20454;-83
2023/01/02 03:04:56;;;;;;;10.07;5.40;;;12.80;99.90;;;;;;4957507;28;20476;-83
2023/01/02 03:07:31;;;;;;;8.70;6.83;;;12.80;99.90;;;;;;4965342;28;20454;-82
2023/01/02 03:10:14;;;;;;;18.03;6.73;;;12.60;99.90;;;;;;4978921;28;20481;-84
2023/01/02 03:12:50;;;;;;;17.53;5.60;;;12.60;99.90;;;;;;4970248;28;20479;-83
2023/01/02 03:15:24;;;;;;;12.53;6.20;;;12.80;99.90;;;;;;4958840;29;20479;-83
2023/01/02 03:18:01;;;;;;;7.80;6.30;;;12.80;99.90;;;;;;4968341;28;20451;-84
2023/01/02 03:20:33;;;;;;;13.57;6.50;;;12.80;99.90;;;;;;4958696;29;20474;-83
2023/01/02 03:23:04;;;;;;;15.13;5.67;;;12.80;99.90;;;;;;4964808;28;20447;-83
2023/01/02 03:25:33;;;;;;;10.23;5.07;;;12.90;99.90;;;;;;4959556;28;20468;-84
2023/01/02 03:28:02;;;;;;;15.00;6.40;;;12.90;99.90;;;;;;4974501;28;20450;-83
2023/01/02 03:30:33;;;;;;;16.50;9.40;;;12.80;99.90;;;;;;4978422;28;20455;-84
2023/01/02 03:33:05;;;;;;;14.60;6.60;;;12.50;99.90;;;;;;4977521;28;20565;-83
2023/01/02 03:35:36;;;;;;;13.23;7.03;;;12.50;99.90;;;;;;4977648;28;20481;-84
2023/01/02 03:38:07;;;;;;;12.43;6.40;;;12.60;99.90;;;;;;4982438;28;20462;-83
2023/01/02 03:40:38;;;;;;;16.80;8.93;;;12.60;99.90;;;;;;4978152;28;20454;-83
2023/01/02 03:43:11;;;;;;;16.37;13.27;;;12.60;99.90;;;;;;4977485;28;20458;-83
2023/01/02 03:45:42;;;;;;;18.20;10.90;;;12.50;99.90;;;;;;4977979;28;20503;-82
2023/01/02 03:48:15;;;;;;;27.87;10.33;;;12.40;99.90;;;;;;4977980;28;20463;-82
2023/01/02 03:50:47;;;;;;;19.47;8.70;;;12.40;99.90;;;;;;4977804;28;20459;-84
2023/01/02 03:53:14;;;;;;;10.40;9.23;;;12.50;99.90;;;;;;4977707;28;20486;-83
2023/01/02 03:56:04;;;;;;;10.00;6.63;;;12.50;99.90;;;;;;4976631;28;20478;-86
2023/01/02 03:58:41;;;;;;;8.30;5.80;;;12.60;99.90;;;;;;4979128;28;20968;-83
2023/01/02 04:01:12;;;;;;;11.90;6.20;;;12.80;99.90;;;;;;4978170;28;20837;-84
2023/01/02 04:03:45;;;;;;;9.00;6.23;;;12.70;99.90;;;;;;4977533;28;20459;-85
2023/01/02 04:06:14;;;;;;;10.47;8.10;;;12.70;99.90;;;;;;4973553;28;20856;-83
2023/01/02 04:08:46;;;;;;;20.50;7.17;;;12.60;99.90;;;;;;4977805;28;20464;-83
2023/01/02 04:11:17;;;;;;;8.53;6.23;;;12.60;99.90;;;;;;4976994;28;20478;-84
2023/01/02 04:13:47;;;;;;;12.00;6.57;;;12.60;99.90;;;;;;4973393;28;20455;-82
2023/01/02 04:16:19;;;;;;;13.80;7.20;;;12.60;99.90;;;;;;4958726;28;20471;-82
2023/01/02 04:18:51;;;;;;;11.00;7.73;;;12.50;99.90;;;;;;4977021;28;20448;-83
2023/01/02 04:21:23;;;;;;;8.67;7.40;;;12.50;99.90;;;;;;4958475;28;20459;-85
2023/01/02 04:23:55;;;;;;;9.63;7.93;;;12.50;99.90;;;;;;4963818;28;20459;-83
2023/01/02 04:26:26;;;;;;;13.10;10.17;;;12.50;99.90;;;;;;4962929;28;20475;-85
2023/01/02 04:28:53;;;;;;;13.50;12.10;;;12.40;99.90;;;;;;4972321;28;20458;-83
2023/01/02 04:31:25;;;;;;;15.57;13.77;;;12.30;99.90;;;;;;4976596;28;20844;-85
2023/01/02 04:33:56;;;;;;;10.10;9.20;;;12.20;99.90;;;;;;4975573;28;20455;-84
2023/01/02 04:36:23;;;;;;;14.20;8.90;;;12.30;99.90;;;;;;4975078;28;20470;-84
2023/01/02 04:38:50;;;;;;;13.40;12.30;;;12.40;99.90;;;;;;4958621;28;20456;-84
2023/01/02 04:41:25;;;;;;;10.47;9.40;;;12.30;99.90;;;;;;4956891;28;20459;-83
2023/01/02 04:43:52;;;;;;;10.13;8.00;;;12.30;99.90;;;;;;4964377;28;20459;-83
2023/01/02 04:46:19;;;;;;;9.23;6.00;;;12.40;99.90;;;;;;4974109;28;20477;-86
2023/01/02 04:48:46;;;;;;;13.50;5.83;;;12.40;99.90;;;;;;4960730;28;20464;-83
2023/01/02 04:51:14;;;;;;;12.93;4.47;;;12.50;99.90;;;;;;4956789;28;20989;-84
2023/01/02 04:53:40;;;;;;;9.60;5.80;;;12.60;99.90;;;;;;4957525;28;20821;-83
2023/01/02 04:56:07;;;;;;;6.63;5.03;;;12.50;99.90;;;;;;4967594;28;20474;-83
2023/01/02 04:58:42;;;;;;;16.03;10.03;;;12.50;99.90;;;;;;4976739;28;20455;-84
2023/01/02 05:01:09;;;;;;;11.27;4.90;;;12.60;99.90;;;;;;4972215;28;20488;-83
2023/01/02 05:03:39;;;;;;;7.00;4.90;;;12.70;99.90;;;;;;4976943;28;20477;-84
2023/01/02 05:06:06;;;;;;;10.87;4.40;;;12.80;99.90;;;;;;4973162;28;20471;-84
2023/01/02 05:08:34;;;;;;;13.83;6.37;;;12.70;99.90;;;;;;4963926;28;20949;-83
2023/01/02 05:11:05;;;;;;;9.90;6.03;;;12.70;99.90;;;;;;4955767;29;20452;-83
2023/01/02 05:13:32;;;;;;;9.43;5.20;;;12.60;99.90;;;;;;4956507;28;20566;-84
2023/01/02 05:15:58;;;;;;;13.53;7.30;;;12.70;99.90;;;;;;4960677;28;20472;-85
2023/01/02 05:18:27;;;;;;;8.83;8.00;;;12.60;99.90;;;;;;4971460;28;20961;-84
2023/01/02 05:21:12;;;;;;;;;;;;;;;;;;;;;
2023/01/02 05:23:49;;;;;;;14.87;13.60;;;12.60;99.90;;;;;;4975089;28;20913;-81
2023/01/02 05:26:17;;;;;;;12.07;11.03;;;12.50;99.90;;;;;;4961657;28;20468;-83
2023/01/02 05:42:10;;;;;;;9.80;8.40;;;12.50;99.90;;;;;;4750950;29;20484;-83
2023/01/02 05:48:08;;;;;;;12.13;10.90;;;12.50;99.90;;;;;;4931095;28;20490;-83
2023/01/02 05:50:41;;;;;;;13.00;11.77;;;12.50;99.90;;;;;;4973998;28;20813;-83
2023/01/02 05:56:28;;;;;;;8.90;8.20;;;12.50;99.90;;;;;;4961647;28;20463;-84
2023/01/02 05:58:55;;;;;;;12.93;11.63;;;12.60;99.90;;;;;;4976439;28;20454;-85
2023/01/02 06:01:41;;;;;;;13.33;12.27;;;12.60;99.90;;;;;;4975888;28;20459;-84
2023/01/02 06:04:19;;;;;;;15.30;13.93;;;12.60;99.90;;;;;;4966394;28;20840;-84
2023/01/02 06:06:45;;;;;;;12.60;11.57;;;12.60;99.90;;;;;;4973090;28;20553;-82
2023/01/02 06:09:13;;;;;;;9.73;8.73;;;12.50;99.90;;;;;;4956589;29;20803;-83
2023/01/02 06:11:41;;;;;;;7.70;6.90;;;12.60;99.90;;;;;;4957995;28;20459;-83
2023/01/02 06:14:13;;;;;;;9.50;8.70;;;12.70;99.90;;;;;;4975019;28;20466;-83
2023/01/02 06:17:34;;;;;;;;;;;;;;;;;;;;;
2023/01/02 06:20:02;;;;;;;7.97;7.17;;;12.50;99.90;;;;;;4892413;28;20460;-85
2023/01/02 06:22:30;;;;;;;6.53;5.90;;;12.60;99.90;;;;;;4957139;28;20440;-85
2023/01/02 06:24:56;;;;;;;10.30;6.63;;;12.70;99.90;;;;;;4956544;29;20474;-83
2023/01/02 06:27:23;;;;;;;10.03;7.50;;;12.70;99.90;;;;;;4966244;28;20451;-83
2023/01/02 06:29:50;;;;;;;5.93;5.33;;;12.70;99.90;;;;;;4974813;28;20454;-83
2023/01/02 06:32:16;;;;;;;6.50;4.97;;;12.80;99.90;;;;;;4967849;28;20479;-83
2023/01/02 06:34:43;;;;;;;7.70;5.63;;;12.80;99.90;;;;;;4955429;28;20480;-82
2023/01/02 06:37:11;;;;;;;8.20;5.87;;;12.80;99.90;;;;;;4960495;28;20452;-85
2023/01/02 06:39:38;;;;;;;11.57;8.57;;;12.70;99.90;;;;;;4970703;28;20462;-85
2023/01/02 06:42:05;;;;;;;7.47;6.63;;;12.80;99.90;;;;;;4960451;28;20455;-82
2023/01/02 06:44:31;;;;;;;8.70;6.13;;;12.70;99.90;;;;;;4965180;28;20483;-83
2023/01/02 06:46:58;;;;;;;6.70;6.10;;;12.80;99.90;;;;;;4959472;28;20463;-82
2023/01/02 06:49:25;;;;;;;9.50;5.90;;;12.70;99.90;;;;;;4963359;28;20456;-83
2023/01/02 06:51:51;;;;;;;8.73;7.27;;;12.80;99.90;;;;;;4956932;28;20826;-83
2023/01/02 06:54:19;;;;;;;10.47;8.17;;;12.80;99.90;;;;;;4961737;28;20459;-83
2023/01/02 06:56:46;;;;;;;8.07;7.43;;;12.70;99.90;;;;;;4977346;28;20455;-82
2023/01/02 06:59:13;;;;;;;11.50;10.60;;;12.80;99.90;;;;;;4975551;28;20459;-84
2023/01/02 07:01:40;;;;;;;12.30;11.30;;;12.70;99.90;;;;;;4968126;28;20460;-83
2023/01/02 07:04:06;;;;;;;12.50;11.37;;;12.60;99.90;;;;;;4956688;29;20951;-81
2023/01/02 07:06:34;;;;;;;18.70;17.30;;;12.60;99.90;;;;;;4961739;28;20461;-82
2023/01/02 07:09:01;;;;;;;23.77;22.00;;;12.60;99.90;;;;;;4973910;28;20458;-82
2023/01/02 07:11:29;;;;;;;30.87;29.27;;;12.50;99.90;;;;;;4956278;28;20482;-83
2023/01/02 07:13:56;;;;;;;53.47;50.67;;;12.50;99.90;;;;;;4972351;28;20482;-84
2023/01/02 07:16:24;;;;;;;78.67;75.53;;;12.40;99.90;;;;;;4972893;28;20477;-82
2023/01/02 07:18:52;;;;;;;94.30;90.70;;;12.30;99.90;;;;;;4966463;28;20483;-83
2023/01/02 07:21:20;;;;;;;131.50;126.63;;;12.30;99.90;;;;;;4961941;28;20511;-82
2023/01/02 07:23:47;;;;;;;140.77;135.53;;;12.20;99.90;;;;;;4957971;28;20459;-82
2023/01/02 07:26:14;;;;;;;170.60;164.70;;;12.20;99.90;;;;;;4960840;28;20471;-82
2023/01/02 07:28:42;;;;;;;159.63;154.17;;;12.10;99.90;;;;;;4959279;28;20969;-83
2023/01/02 07:31:12;;;;;;;174.17;167.83;;;12.10;99.90;;;;;;4970051;28;20985;-83
2023/01/02 07:33:39;;;;;;;229.27;221.33;;;12.10;99.90;;;;;;4957330;28;20472;-82
2023/01/02 07:36:08;;;;;;;258.13;248.83;;;12.10;99.90;;;;;;4965567;28;20474;-83
2023/01/02 07:38:37;;;;;;;276.23;266.67;;;12.00;99.90;;;;;;4974468;28;20463;-84
2023/01/02 07:41:03;;;;;;;319.03;307.77;;;12.00;99.90;;;;;;4956964;28;20466;-83
2023/01/02 07:43:30;;;;;;;362.17;348.67;;;12.00;99.90;;;;;;4958313;28;20455;-82
2023/01/02 07:46:03;;;;;;;361.40;347.97;;;12.00;99.90;;;;;;4966494;28;20474;-84
2023/01/02 07:48:30;;;;;;;375.67;362.47;;;11.90;99.90;;;;;;4968466;28;20459;-83
2023/01/02 07:51:00;;;;;;;355.07;342.23;;;11.90;99.90;;;;;;4966997;28;20455;-82
2023/01/02 07:53:27;;;;;;;337.00;325.20;;;11.90;99.90;;;;;;4970363;28;21004;-82
2023/01/02 07:55:53;;;;;;;397.53;383.33;;;11.90;99.90;;;;;;4976795;28;20507;-85
2023/01/02 07:58:20;;;;;;;340.27;328.47;;;11.90;99.90;;;;;;4973872;28;20463;-83
2023/01/02 08:00:47;;;;;;;408.90;394.20;;;11.90;99.90;;;;;;4966693;28;20456;-83
2023/01/02 08:03:15;;;;;;;367.33;354.03;;;11.80;99.90;;;;;;4973549;28;20454;-84
2023/01/02 08:05:42;;;;;;;477.47;459.33;;;11.80;99.90;;;;;;4975471;28;20479;-85
2023/01/02 08:08:08;;;;;;;443.53;427.27;;;11.90;99.90;;;;;;4972998;28;20454;-81
2023/01/02 08:10:37;;;;;;;535.47;513.27;;;11.80;99.90;;;;;;4977504;28;20451;-82
2023/01/02 08:13:03;;;;;;;543.13;519.27;;;11.70;99.90;;;;;;4969077;28;20554;-80
2023/01/02 08:15:30;;;;;;;559.23;532.93;;;11.70;99.90;;;;;;4968900;28;20475;-83
2023/01/02 08:17:57;;;;;;;566.50;539.07;;;11.70;99.90;;;;;;4964877;28;20831;-82
2023/01/02 08:20:26;;;;;;;579.27;548.97;;;11.70;99.90;;;;;;4967886;28;20461;-81
2023/01/02 08:22:52;;;;;;;587.70;556.70;;;11.70;99.90;;;;;;4976718;28;20446;-82
2023/01/02 08:25:20;;;;;;;609.07;575.53;;;11.70;99.90;;;;;;4957286;28;20497;-83
2023/01/02 08:27:46;;;;;;;626.80;589.70;;;11.80;99.90;;;;;;4958019;28;20452;-81
2023/01/02 08:30:13;;;;;;;624.60;585.80;;;11.70;99.90;;;;;;4959921;28;20452;-82
2023/01/02 08:32:41;;;;;;;619.43;578.87;;;11.70;99.90;;;;;;4966951;28;20462;-82
2023/01/02 08:35:09;;;;;;;622.40;584.20;;;11.70;99.90;;;;;;4959314;28;20543;-82
2023/01/02 08:37:37;;;;;;;601.43;565.20;;;11.70;99.90;;;;;;4974546;28;20462;-83
2023/01/02 08:40:04;;;;;;;590.00;556.90;;;11.70;99.90;;;;;;4960655;28;20452;-81
2023/01/02 08:42:31;;;;;;;531.67;505.33;;;11.80;99.90;;;;;;4959239;28;20452;-82
2023/01/02 08:44:58;;;;;;;540.47;512.47;;;11.80;99.90;;;;;;4980926;23;20494;-84
2023/01/02 08:47:24;;;;;;;580.27;548.83;;;11.80;99.90;;;;;;5018447;28;20451;-82
2023/01/02 08:49:51;;;;;;;559.77;531.30;;;11.80;99.90;;;;;;5037033;28;20474;-81
2023/01/02 08:52:18;;;;;;;534.13;508.13;;;11.80;99.90;;;;;;5038255;28;20452;-83
2023/01/02 08:54:46;;;;;;;526.33;501.83;;;11.80;99.90;;;;;;5038828;28;20476;-83
2023/01/02 08:57:12;;;;;;;499.17;476.97;;;11.80;99.90;;;;;;5020595;28;20464;-83
2023/01/02 08:59:39;;;;;;;524.00;498.70;;;11.80;99.90;;;;;;5019864;28;20453;-83
2023/01/02 09:02:06;;;;;;;511.13;487.70;;;11.80;99.90;;;;;;5018039;28;20453;-82
2023/01/02 09:04:33;;;;;;;525.53;501.77;;;11.70;99.90;;;;;;5018841;28;20465;-82
2023/01/02 09:07:00;;;;;;;508.27;486.27;;;11.60;99.90;;;;;;5019780;28;20453;-80
2023/01/02 09:09:26;;;;;;;400.60;385.67;;;11.60;99.90;;;;;;5019294;28;20468;-81
2023/01/02 09:11:54;;;;;;;436.57;419.60;;;11.40;99.90;;;;;;5019456;28;20948;-80
2023/01/02 09:14:23;;;;;;;456.13;438.47;;;11.50;99.90;;;;;;5018349;28;20485;-80
2023/01/02 09:16:51;;;;;;;434.60;418.33;;;11.30;99.90;;;;;;5018099;28;20460;-80
2023/01/02 09:19:19;;;;;;;472.13;453.77;;;11.30;99.90;;;;;;5017909;28;20453;-80
2023/01/02 09:21:45;;;;;;;362.00;349.70;;;10.90;99.90;;;;;;5017855;28;20810;-81
2023/01/02 09:24:12;;;;;;;410.27;395.87;;;10.60;99.90;;;;;;5017777;28;20974;-81
2023/01/02 09:26:46;;;;;;;370.73;358.23;;;10.50;99.90;;;;;;5017813;28;20456;-80
2023/01/02 09:29:15;;;;;;;423.17;407.87;;;10.40;99.90;;;;;;5033572;28;20458;-81
2023/01/02 09:31:42;;;;;;;455.07;437.83;;;10.40;99.90;;;;;;5018293;28;20457;-82
2023/01/02 09:34:08;;;;;;;465.87;447.73;;;10.40;99.90;;;;;;5019053;28;20548;-81
2023/01/02 09:36:35;;;;;;;472.37;453.50;;;10.50;99.90;;;;;;5019123;28;20457;-81
2023/01/02 09:39:03;;;;;;;417.17;401.10;;;10.40;99.90;;;;;;5019081;28;20459;-82
2023/01/02 09:41:35;;;;;;;477.70;457.93;;;10.40;99.90;;;;;;5019119;28;20453;-81
2023/01/02 09:44:10;;;;;;;493.77;473.00;;;10.40;99.90;;;;;;5018811;28;20453;-81
2023/01/02 09:46:44;;;;;;;503.20;481.97;;;10.40;99.90;;;;;;5018042;28;20471;-81
2023/01/02 09:49:14;;;;;;;478.17;458.60;;;10.40;99.90;;;;;;5018391;28;20452;-81
2023/01/02 09:51:41;;;;;;;459.33;440.57;;;10.30;99.90;;;;;;5018184;28;21104;-82
2023/01/02 09:54:15;;;;;;;387.33;372.77;;;10.30;99.90;;;;;;5017488;28;20477;-81
2023/01/02 09:56:48;;;;;;;409.73;394.20;;;10.40;99.90;;;;;;5017451;28;20931;-81
2023/01/02 09:59:21;;;;;;;347.53;334.83;;;10.40;99.90;;;;;;5018438;28;20457;-82
2023/01/02 10:01:59;;;;;;;347.67;334.97;;;10.30;99.90;;;;;;5018577;28;20437;-81
2023/01/02 10:04:40;;;;;;;300.73;289.93;;;10.50;99.90;;;;;;5017151;28;20477;-81
2023/01/02 10:07:11;;;;;;;274.47;264.57;;;10.30;99.90;;;;;;5017654;28;20449;-82
2023/01/02 10:09:48;;;;;;;282.33;272.50;;;10.30;99.90;;;;;;5018116;28;20947;-81
2023/01/02 10:12:21;;;;;;;294.23;283.70;;;10.40;99.90;;;;;;5018212;28;20448;-81
2023/01/02 10:14:54;;;;;;;308.40;297.37;;;10.30;99.90;;;;;;5017814;28;20481;-83
2023/01/02 10:17:23;;;;;;;313.10;301.60;;;10.40;99.90;;;;;;5018056;28;20812;-81
2023/01/02 10:19:56;;;;;;;323.10;311.53;;;10.50;99.90;;;;;;5018560;28;20453;-81
2023/01/02 10:22:30;;;;;;;268.50;258.87;;;10.50;99.90;;;;;;5018316;28;20442;-81
2023/01/02 10:25:04;;;;;;;294.23;283.93;;;10.50;99.90;;;;;;5017906;28;20475;-82
2023/01/02 10:27:37;;;;;;;299.83;289.23;;;10.50;99.90;;;;;;5017184;28;20464;-82
2023/01/02 10:30:14;;;;;;;354.07;341.27;;;10.50;99.90;;;;;;5017366;28;20461;-82
2023/01/02 10:32:46;;;;;;;252.03;243.03;;;10.50;99.90;;;;;;5018167;28;20461;-81
2023/01/02 10:35:31;;;;;;;300.33;289.33;;;10.60;99.90;;;;;;5017786;28;20481;-82
2023/01/02 10:37:57;;;;;;;321.23;309.63;;;10.60;99.90;;;;;;5017084;28;20453;-82
2023/01/02 10:40:25;;;;;;;292.47;282.17;;;10.60;99.90;;;;;;5017518;28;20457;-81
2023/01/02 10:42:56;;;;;;;268.27;258.67;;;10.70;99.90;;;;;;5017827;28;20453;-81
2023/01/02 10:45:23;;;;;;;290.43;279.73;;;10.60;99.90;;;;;;4980908;28;1051150;-82
2023/01/02 10:47:51;;;;;;;315.70;304.40;;;10.70;99.90;;;;;;5018920;28;20564;-82
2023/01/02 10:50:21;;;;;;;375.60;362.10;;;10.80;99.90;;;;;;5019202;28;20453;-81
2023/01/02 10:52:50;;;;;;;345.93;333.57;;;10.80;99.90;;;;;;5017772;28;20511;-81
2023/01/02 10:55:30;;;;;;;363.77;350.67;;;10.80;99.90;;;;;;5017293;28;20481;-81
2023/01/02 10:58:03;;;;;;;364.17;350.93;;;10.80;99.90;;;;;;5018143;28;20452;-82
2023/01/02 11:00:32;;;;;;;385.73;371.57;;;10.90;99.90;;;;;;5018063;28;20444;-81
2023/01/02 11:03:05;;;;;;;332.10;319.90;;;11.00;99.90;;;;;;5018670;28;20959;-82
2023/01/02 11:05:32;;;;;;;287.43;277.60;;;11.00;99.90;;;;;;5017664;28;20846;-80
2023/01/02 11:08:05;;;;;;;257.87;248.90;;;11.10;99.90;;;;;;5018464;28;20481;-82
2023/01/02 11:10:36;;;;;;;280.60;271.10;;;11.10;99.90;;;;;;5016779;28;20462;-81
2023/01/02 11:13:04;;;;;;;249.63;241.10;;;11.30;99.90;;;;;;5018638;28;20912;-83
2023/01/02 11:15:33;;;;;;;199.47;192.70;;;11.30;99.90;;;;;;5018146;28;20484;-82
2023/01/02 11:18:03;;;;;;;222.73;215.23;;;11.30;99.90;;;;;;5017832;28;20449;-81
2023/01/02 11:20:33;;;;;;;257.53;248.87;;;11.10;99.90;;;;;;5018287;28;20460;-82
2023/01/02 11:23:02;;;;;;;280.87;271.47;;;11.10;99.90;;;;;;5017427;28;20464;-82
2023/01/02 11:25:36;;;;;;;274.60;265.37;;;11.00;99.90;;;;;;5018934;28;20481;-81
2023/01/02 11:28:04;;;;;;;301.57;291.47;;;11.00;99.90;;;;;;5021279;28;20456;-81
2023/01/02 11:30:36;;;;;;;345.67;333.57;;;11.00;99.90;;;;;;5021121;28;20959;-81
2023/01/02 11:33:18;;;;;;;357.97;345.10;;;11.10;99.90;;;;;;5021329;28;20916;-81
2023/01/02 11:35:47;;;;;;;319.93;308.30;;;11.10;99.90;;;;;;5021211;28;20461;-82
2023/01/02 11:38:16;;;;;;;222.03;213.67;;;11.20;99.90;;;;;;5022501;28;20533;-82
2023/01/02 11:40:56;;;;;;;228.97;221.33;;;11.20;99.90;;;;;;5020909;28;20452;-81
2023/01/02 11:43:47;;;;;;;278.13;268.83;;;11.30;99.90;;;;;;5022623;28;20453;-81
2023/01/02 11:46:22;;;;;;;317.47;306.37;;;11.50;99.90;;;;;;5021301;28;20557;-80
2023/01/02 11:48:53;;;;;;;275.03;265.83;;;11.70;99.90;;;;;;5022457;28;20459;-81
2023/01/02 11:51:21;;;;;;;273.93;264.70;;;11.80;99.90;;;;;;5022280;28;20439;-81
2023/01/02 11:53:52;;;;;;;205.50;198.57;;;11.90;99.90;;;;;;5021008;28;20673;-79
2023/01/02 11:56:25;;;;;;;172.70;166.57;;;12.00;99.90;;;;;;5021403;28;20488;-81
2023/01/02 11:58:58;;;;;;;148.37;143.27;;;11.90;99.90;;;;;;5021440;28;20475;-81
2023/01/02 12:01:32;;;;;;;143.33;138.23;;;11.80;99.90;;;;;;5020625;28;20460;-80
2023/01/02 12:04:00;;;;;;;215.93;208.67;;;11.60;99.90;;;;;;5020914;28;20472;-81
2023/01/02 12:06:40;;;;;;;217.70;210.10;;;11.40;99.90;;;;;;5020880;28;20588;-82
2023/01/02 12:09:11;;;;;;;227.13;219.53;;;11.30;99.90;;;;;;5020648;28;20457;-81
2023/01/02 12:11:56;;;;;;;250.20;241.80;;;11.20;99.90;;;;;;5020570;28;20971;-82
2023/01/02 12:14:29;;;;;;;347.93;336.00;;;11.10;99.90;;;;;;5019059;28;20493;-80
2023/01/02 12:17:02;;;;;;;350.97;339.07;;;11.00;99.90;;;;;;5039175;28;20459;-82
2023/01/02 12:20:08;;;;;;;366.80;354.27;;;10.90;99.90;;;;;;5040430;28;20436;-81
2023/01/02 12:23:06;;;;;;;386.13;372.73;;;10.80;99.90;;;;;;5030113;28;20461;-81
2023/01/02 12:25:47;;;;;;;351.93;339.63;;;10.60;99.90;;;;;;4989919;28;20472;-80
2023/01/02 12:28:34;;;;;;;426.33;410.57;;;10.60;99.90;;;;;;5019243;28;20452;-80
2023/01/02 12:31:19;;;;;;;389.87;375.83;;;10.70;99.90;;;;;;5019002;28;20448;-81
2023/01/02 12:33:51;;;;;;;332.40;320.43;;;10.70;99.90;;;;;;5019071;28;20460;-82
2023/01/02 12:37:04;;;;;;;;;;;;;;;;;;;;;
2023/01/02 12:39:49;;;;;;;271.20;261.53;;;10.60;99.90;;;;;;5002726;28;20527;-81
2023/01/02 12:42:29;;;;;;;356.63;344.17;;;10.60;99.90;;;;;;5019947;28;20576;-82
2023/01/02 12:44:57;;;;;;;364.63;351.43;;;10.50;99.90;;;;;;5019049;28;20473;-81
2023/01/02 12:47:47;;;;;;;407.20;392.27;;;10.60;99.90;;;;;;5018016;28;20448;-81
2023/01/02 12:50:47;;;;;;;437.97;421.50;;;10.60;99.90;;;;;;5019002;28;20453;-81
2023/01/02 12:53:25;;;;;;;441.40;424.70;;;10.50;99.90;;;;;;5018863;28;20449;-81
2023/01/02 12:56:02;;;;;;;427.63;411.53;;;10.60;99.90;;;;;;5036375;28;20491;-82
2023/01/02 12:58:46;;;;;;;471.20;451.67;;;10.70;99.90;;;;;;5037584;28;20465;-82
2023/01/02 13:01:21;;;;;;;376.60;362.93;;;10.80;99.90;;;;;;5040428;28;20225;-81
2023/01/02 13:04:01;;;;;;;375.87;362.30;;;10.80;99.90;;;;;;5039591;28;20851;-79
2023/01/02 13:06:35;;;;;;;332.43;320.63;;;10.90;99.90;;;;;;5039352;28;20978;-82